Furenas — OZ2085 — position and weather

sailwx.info

Track history (hours):
 
Tides and Currents Weather Stations Pressure Air Temp Water Temp Dewpoint Dewpoint Depression Visibility Wind Speed Wind Dir Waves Ship Positions

Furenas

Last reported at 2015-Apr-28 03:33 UTC. Time now 2015-Apr-28 03:50 UTC.
Position N 59°20' E 010°31'.

Length 137 m; draft 8.1 m.

Type: Tanker. MMSI: 231734000.

Date/timePositionNaut miles runAvg speedWind from/ knotsBaromVisibWave heightAir tempDewpointWater temp
2015-Apr-28 03:33N 59°20' E 010°31'0 0.0
2015-Apr-28 02:29N 59°20' E 010°31'0 0.0
2015-Apr-28 01:32N 59°20' E 010°31'0 0.0
2015-Apr-28 00:32N 59°20' E 010°31'0 0.0
2015-Apr-27 23:32N 59°20' E 010°31'0 0.0
2015-Apr-27 22:32N 59°20' E 010°31'0 0.0
2015-Apr-27 21:29N 59°20' E 010°31'0 0.0
2015-Apr-27 20:32N 59°20' E 010°31'0 0.0
2015-Apr-27 19:29N 59°20' E 010°31'0 0.0
2015-Apr-27 18:32N 59°20' E 010°31'0 0.0
2015-Apr-27 17:32N 59°20' E 010°31'0 0.0
2015-Apr-27 16:32N 59°20' E 010°31'0 0.0
2015-Apr-27 15:33N 59°20' E 010°31'3 3.5
2015-Apr-27 14:33N 59°17' E 010°35'1312.5
2015-Apr-27 13:33N 59°04' E 010°34'2211.2
2015-Apr-27 11:33N 58°43' E 010°47'1111.2
2015-Apr-27 10:33N 58°32' E 010°53'1111.1
2015-Apr-27 09:33N 58°22' E 011°03'9 9.3
2015-Apr-27 08:33N 58°17' E 011°18'6 4.3
2015-Apr-27 07:09N 58°21' E 011°26'0 0.0
2015-Apr-27 05:27N 58°21' E 011°26'0 0.0
2015-Apr-27 04:27N 58°21' E 011°26'0 0.0
2015-Apr-27 03:31N 58°21' E 011°26'0 0.0
2015-Apr-27 02:31N 58°21' E 011°26'0 0.0
2015-Apr-27 01:12N 58°21' E 011°26'0 0.0
2015-Apr-27 00:27N 58°21' E 011°26'0 0.0
2015-Apr-26 23:33N 58°21' E 011°26'0 0.0
2015-Apr-26 22:33N 58°21' E 011°26'0 0.0
2015-Apr-26 21:33N 58°21' E 011°26'0 0.0
2015-Apr-26 20:33N 58°21' E 011°26'0 0.0
2015-Apr-26 19:33N 58°21' E 011°26'0 0.0
2015-Apr-26 18:27N 58°21' E 011°26'0 0.0
2015-Apr-26 17:27N 58°21' E 011°26'0 0.0
2015-Apr-26 16:33N 58°21' E 011°26'0 0.0
2015-Apr-26 15:33N 58°21' E 011°26'0 0.0
2015-Apr-26 14:33N 58°21' E 011°26'0 0.0
2015-Apr-26 13:33N 58°21' E 011°26'0 0.0
2015-Apr-26 12:33N 58°21' E 011°26'0 0.0
2015-Apr-26 11:15N 58°21' E 011°26'0 0.0
2015-Apr-26 10:27N 58°21' E 011°26'0 0.0
2015-Apr-26 09:33N 58°21' E 011°26'0 0.2
2015-Apr-26 08:33N 58°21' E 011°26'9 9.2
2015-Apr-26 07:33N 58°15' E 011°13'6 6.5
2015-Apr-26 06:33N 58°09' E 011°14'7 7.2
2015-Apr-26 05:33N 58°02' E 011°17'7 7.4
2015-Apr-26 04:33N 57°54' E 011°20'8 7.9
2015-Apr-26 03:33N 57°47' E 011°24'1212.1
2015-Apr-26 02:33N 57°35' E 011°31'1211.8
2015-Apr-26 01:33N 57°25' E 011°41'1211.6
2015-Apr-26 00:33N 57°15' E 011°51'1211.6
2015-Apr-25 23:33N 57°04' E 011°57'1211.8
2015-Apr-25 22:33N 56°53' E 012°04'1212.0
2015-Apr-25 21:33N 56°41' E 012°11'1211.9
2015-Apr-25 20:32N 56°30' E 012°18'1211.9
2015-Apr-25 19:33N 56°19' E 012°25'1211.6
2015-Apr-25 18:33N 56°08' E 012°32'1212.2
2015-Apr-25 17:33N 55°57' E 012°43'1211.7
2015-Apr-25 16:33N 55°46' E 012°50'10 9.8
2015-Apr-25 15:33N 55°37' E 012°53'1010.4
2015-Apr-25 14:33N 55°28' E 012°43'1212.0
2015-Apr-25 13:33N 55°16' E 012°40'1212.0
2015-Apr-25 12:33N 55°04' E 012°39'1211.7
2015-Apr-25 11:33N 54°53' E 012°34'1211.8
2015-Apr-25 10:33N 54°42' E 012°24'9 9.1
2015-Apr-25 09:33N 54°34' E 012°19'1211.6
2015-Apr-25 08:32N 54°23' E 012°09'1111.3
2015-Apr-25 07:33N 54°13' E 012°05'4 3.5
2015-Apr-25 06:31N 54°09' E 012°08'0 0.0
2015-Apr-25 05:28N 54°09' E 012°08'0 0.0
2015-Apr-25 04:28N 54°09' E 012°08'0 0.0
2015-Apr-25 03:04N 54°09' E 012°08'0 0.0
2015-Apr-25 02:22N 54°09' E 012°08'0 0.0
2015-Apr-25 01:28N 54°09' E 012°08'0 0.0
2015-Apr-25 00:31N 54°09' E 012°08'0 0.0
2015-Apr-24 23:28N 54°09' E 012°08'0 0.0
2015-Apr-24 22:28N 54°09' E 012°08'0 0.0
2015-Apr-24 21:28N 54°09' E 012°08'0 0.0
2015-Apr-24 20:25N 54°09' E 012°08'0 0.0
2015-Apr-24 19:31N 54°09' E 012°08'0 0.0
2015-Apr-24 17:22N 54°09' E 012°08'0 0.0
2015-Apr-24 16:25N 54°09' E 012°08'0 0.0
2015-Apr-24 15:25N 54°09' E 012°08'0 0.0
2015-Apr-24 14:25N 54°09' E 012°08'0 0.0
2015-Apr-24 13:28N 54°09' E 012°08'0 0.0
2015-Apr-24 12:04N 54°09' E 012°08'0 0.0
2015-Apr-24 10:33N 54°09' E 012°08'0 0.0
2015-Apr-24 09:33N 54°09' E 012°08'0 0.0
2015-Apr-24 08:33N 54°09' E 012°08'0 0.0
2015-Apr-24 07:33N 54°09' E 012°08'0 0.0
2015-Apr-24 06:33N 54°09' E 012°08'0 0.0
2015-Apr-24 05:33N 54°09' E 012°08'0 0.0
2015-Apr-24 04:33N 54°09' E 012°08'0 0.0
2015-Apr-24 03:06N 54°09' E 012°08'0 0.0
2015-Apr-24 02:27N 54°09' E 012°08'0 0.0
2015-Apr-24 00:27N 54°09' E 012°08'0 0.0
2015-Apr-23 23:30N 54°09' E 012°08'0 0.0
2015-Apr-23 21:27N 54°09' E 012°08'0 0.0
2015-Apr-23 20:27N 54°09' E 012°08'0 0.0
2015-Apr-23 19:27N 54°09' E 012°08'0 0.0
2015-Apr-23 18:33N 54°09' E 012°08'0 0.0
2015-Apr-23 17:33N 54°09' E 012°08'0 0.0
2015-Apr-23 15:27N 54°09' E 012°08'0 0.0
2015-Apr-23 14:18N 54°09' E 012°08'1 1.7
2015-Apr-23 13:32N 54°10' E 012°06'1010.6
2015-Apr-23 12:33N 54°20' E 011°59'8 8.5
2015-Apr-23 11:33N 54°26' E 012°08'1110.9
2015-Apr-23 10:30N 54°37' E 012°16'1511.8
2015-Apr-23 09:15N 54°45' E 012°37'3411.9
2015-Apr-23 06:21N 54°58' E 013°32'1111.8
2015-Apr-23 05:26N 55°02' E 013°50'1011.7
2015-Apr-23 04:33N 55°06' E 014°06'1211.9
2015-Apr-23 03:33N 55°15' E 014°20'1212.0
2015-Apr-23 02:33N 55°25' E 014°33'1211.7
2015-Apr-23 01:33N 55°31' E 014°51'1212.0
2015-Apr-23 00:33N 55°37' E 015°09'1211.8
2015-Apr-22 23:33N 55°43' E 015°27'1212.0
2015-Apr-22 22:33N 55°49' E 015°45'  
Track history (hours):
 
Tides and Currents Weather Stations Pressure Air Temp Water Temp Dewpoint Dewpoint Depression Visibility Wind Speed Wind Dir Waves Ship Positions

Furenas

Last reported at 2015-Apr-28 03:33 UTC. Time now 2015-Apr-28 03:50 UTC.
Position N 59°20' E 010°31'.

Length 137 m; draft 8.1 m.

Type: Tanker. MMSI: 231734000.

Date/timePositionNaut miles runAvg speedWind from/ knotsBaromVisibWave heightAir tempDewpointWater temp
2015-Apr-28 03:33N 59°20' E 010°31'0 0.0
2015-Apr-28 02:29N 59°20' E 010°31'0 0.0
2015-Apr-28 01:32N 59°20' E 010°31'0 0.0
2015-Apr-28 00:32N 59°20' E 010°31'0 0.0
2015-Apr-27 23:32N 59°20' E 010°31'0 0.0
2015-Apr-27 22:32N 59°20' E 010°31'0 0.0
2015-Apr-27 21:29N 59°20' E 010°31'0 0.0
2015-Apr-27 20:32N 59°20' E 010°31'0 0.0
2015-Apr-27 19:29N 59°20' E 010°31'0 0.0
2015-Apr-27 18:32N 59°20' E 010°31'0 0.0
2015-Apr-27 17:32N 59°20' E 010°31'0 0.0
2015-Apr-27 16:32N 59°20' E 010°31'0 0.0
2015-Apr-27 15:33N 59°20' E 010°31'3 3.5
2015-Apr-27 14:33N 59°17' E 010°35'1312.5
2015-Apr-27 13:33N 59°04' E 010°34'2211.2
2015-Apr-27 11:33N 58°43' E 010°47'1111.2
2015-Apr-27 10:33N 58°32' E 010°53'1111.1
2015-Apr-27 09:33N 58°22' E 011°03'9 9.3
2015-Apr-27 08:33N 58°17' E 011°18'6 4.3
2015-Apr-27 07:09N 58°21' E 011°26'0 0.0
2015-Apr-27 05:27N 58°21' E 011°26'0 0.0
2015-Apr-27 04:27N 58°21' E 011°26'0 0.0
2015-Apr-27 03:31N 58°21' E 011°26'0 0.0
2015-Apr-27 02:31N 58°21' E 011°26'0 0.0
2015-Apr-27 01:12N 58°21' E 011°26'0 0.0
2015-Apr-27 00:27N 58°21' E 011°26'0 0.0
2015-Apr-26 23:33N 58°21' E 011°26'0 0.0
2015-Apr-26 22:33N 58°21' E 011°26'0 0.0
2015-Apr-26 21:33N 58°21' E 011°26'0 0.0
2015-Apr-26 20:33N 58°21' E 011°26'0 0.0
2015-Apr-26 19:33N 58°21' E 011°26'0 0.0
2015-Apr-26 18:27N 58°21' E 011°26'0 0.0
2015-Apr-26 17:27N 58°21' E 011°26'0 0.0
2015-Apr-26 16:33N 58°21' E 011°26'0 0.0
2015-Apr-26 15:33N 58°21' E 011°26'0 0.0
2015-Apr-26 14:33N 58°21' E 011°26'0 0.0
2015-Apr-26 13:33N 58°21' E 011°26'0 0.0
2015-Apr-26 12:33N 58°21' E 011°26'0 0.0
2015-Apr-26 11:15N 58°21' E 011°26'0 0.0
2015-Apr-26 10:27N 58°21' E 011°26'0 0.0
2015-Apr-26 09:33N 58°21' E 011°26'0 0.2
2015-Apr-26 08:33N 58°21' E 011°26'9 9.2
2015-Apr-26 07:33N 58°15' E 011°13'6 6.5
2015-Apr-26 06:33N 58°09' E 011°14'7 7.2
2015-Apr-26 05:33N 58°02' E 011°17'7 7.4
2015-Apr-26 04:33N 57°54' E 011°20'8 7.9
2015-Apr-26 03:33N 57°47' E 011°24'1212.1
2015-Apr-26 02:33N 57°35' E 011°31'1211.8
2015-Apr-26 01:33N 57°25' E 011°41'1211.6
2015-Apr-26 00:33N 57°15' E 011°51'1211.6
2015-Apr-25 23:33N 57°04' E 011°57'1211.8
2015-Apr-25 22:33N 56°53' E 012°04'1212.0
2015-Apr-25 21:33N 56°41' E 012°11'1211.9
2015-Apr-25 20:32N 56°30' E 012°18'1211.9
2015-Apr-25 19:33N 56°19' E 012°25'1211.6
2015-Apr-25 18:33N 56°08' E 012°32'1212.2
2015-Apr-25 17:33N 55°57' E 012°43'1211.7
2015-Apr-25 16:33N 55°46' E 012°50'10 9.8
2015-Apr-25 15:33N 55°37' E 012°53'1010.4
2015-Apr-25 14:33N 55°28' E 012°43'1212.0
2015-Apr-25 13:33N 55°16' E 012°40'1212.0
2015-Apr-25 12:33N 55°04' E 012°39'1211.7
2015-Apr-25 11:33N 54°53' E 012°34'1211.8
2015-Apr-25 10:33N 54°42' E 012°24'9 9.1
2015-Apr-25 09:33N 54°34' E 012°19'1211.6
2015-Apr-25 08:32N 54°23' E 012°09'1111.3
2015-Apr-25 07:33N 54°13' E 012°05'4 3.5
2015-Apr-25 06:31N 54°09' E 012°08'0 0.0
2015-Apr-25 05:28N 54°09' E 012°08'0 0.0
2015-Apr-25 04:28N 54°09' E 012°08'0 0.0
2015-Apr-25 03:04N 54°09' E 012°08'0 0.0
2015-Apr-25 02:22N 54°09' E 012°08'0 0.0
2015-Apr-25 01:28N 54°09' E 012°08'0 0.0
2015-Apr-25 00:31N 54°09' E 012°08'0 0.0
2015-Apr-24 23:28N 54°09' E 012°08'0 0.0
2015-Apr-24 22:28N 54°09' E 012°08'0 0.0
2015-Apr-24 21:28N 54°09' E 012°08'0 0.0
2015-Apr-24 20:25N 54°09' E 012°08'0 0.0
2015-Apr-24 19:31N 54°09' E 012°08'0 0.0
2015-Apr-24 17:22N 54°09' E 012°08'0 0.0
2015-Apr-24 16:25N 54°09' E 012°08'0 0.0
2015-Apr-24 15:25N 54°09' E 012°08'0 0.0
2015-Apr-24 14:25N 54°09' E 012°08'0 0.0
2015-Apr-24 13:28N 54°09' E 012°08'0 0.0
2015-Apr-24 12:04N 54°09' E 012°08'0 0.0
2015-Apr-24 10:33N 54°09' E 012°08'0 0.0
2015-Apr-24 09:33N 54°09' E 012°08'0 0.0
2015-Apr-24 08:33N 54°09' E 012°08'0 0.0
2015-Apr-24 07:33N 54°09' E 012°08'0 0.0
2015-Apr-24 06:33N 54°09' E 012°08'0 0.0
2015-Apr-24 05:33N 54°09' E 012°08'0 0.0
2015-Apr-24 04:33N 54°09' E 012°08'0 0.0
2015-Apr-24 03:06N 54°09' E 012°08'0 0.0
2015-Apr-24 02:27N 54°09' E 012°08'0 0.0
2015-Apr-24 00:27N 54°09' E 012°08'0 0.0
2015-Apr-23 23:30N 54°09' E 012°08'0 0.0
2015-Apr-23 21:27N 54°09' E 012°08'0 0.0
2015-Apr-23 20:27N 54°09' E 012°08'0 0.0
2015-Apr-23 19:27N 54°09' E 012°08'0 0.0
2015-Apr-23 18:33N 54°09' E 012°08'0 0.0
2015-Apr-23 17:33N 54°09' E 012°08'0 0.0
2015-Apr-23 15:27N 54°09' E 012°08'0 0.0
2015-Apr-23 14:18N 54°09' E 012°08'1 1.7
2015-Apr-23 13:32N 54°10' E 012°06'1010.6
2015-Apr-23 12:33N 54°20' E 011°59'8 8.5
2015-Apr-23 11:33N 54°26' E 012°08'1110.9
2015-Apr-23 10:30N 54°37' E 012°16'1511.8
2015-Apr-23 09:15N 54°45' E 012°37'3411.9
2015-Apr-23 06:21N 54°58' E 013°32'1111.8
2015-Apr-23 05:26N 55°02' E 013°50'1011.7
2015-Apr-23 04:33N 55°06' E 014°06'1211.9
2015-Apr-23 03:33N 55°15' E 014°20'1212.0
2015-Apr-23 02:33N 55°25' E 014°33'1211.7
2015-Apr-23 01:33N 55°31' E 014°51'1212.0
2015-Apr-23 00:33N 55°37' E 015°09'1211.8
2015-Apr-22 23:33N 55°43' E 015°27'1212.0
2015-Apr-22 22:33N 55°49' E 015°45'  

Dump ship's entire track history